Main page
METAR-TAF:

METAR-TAF

Airports :

Gage Airport

Gage, Oklahoma, United States

latitude: 36-17-48N, longitude: 099-46-08W, elevation: 2221 ft

Current weather observation

The report was made 8 minutes ago, at 00:14 UTC
Wind 21 mph from the North/Northwest with gusts up to 28 mph
Temperature 25°F
Humidity 58%
Pressure 30.07 in. Hg
Visibility: 8 miles
Broken clouds at a height of 2900 ft
Overcast at a height of 4100 ft

METAR: KGAG 230014Z AUTO 34018G24KT 8SM BKN029 OVC041 M04/M11 A3007 RMK AO2 T10441106

Time: 18:22 (00:22 UTC)


TAF: missing

Weather observations and forecasts of more than 4000 airports (METAR and TAF reports).

The available stations are represented by yellow and red dots on the map.

Hover mouse over dot to see the name of the station.

Then click to see weather observations and forecasts.

To change the map : click on the green buttons with a black cross to zoom in, on the green button with a dash to zoom out, or on the green arrows for adjacent maps.


METAR-TAF: